< < Back
Terminal Aerodrome Forecast


Current Version              Previous Versions:   1  2  3  4  5  6  7  8  9  

Terminal Aerodrome Forecast

442
FTUS42 KTAE 311700
TAFABY
TAF
KABY 311721Z 3118/0118 09006KT P6SM SCT250
     FM011700 17013KT P6SM BKN040=



Latest METAR

841
SAUS70 KWBC 311700
MTRABY
METAR KABY 311653Z 08006KT 10SM CLR 12/M05 A3040 RMK AO2 SLP294
T01221050


USA.gov is the U.S. government's official web portal to all federal, state and local government web resources and services.